トロムソ空港の過去48時間の天気

トロムソ空港 (Tromso / Langnes)

現在時刻: 9/16 17:10 CEST (9/16 15:10 UTC) 以下の時間は現地時間です。

過去48時間のMETAR気象情報
時間 風向 風速(m/s) 視程 気温(℃) 湿度(%) 気圧(hPa) 天気現象
16 16:50 北東 5 10km以上 9 57 1000
16 16:20 北東 5 10km以上 9 62 1000
16 15:50 北東 5 10km以上 10 54 1000
16 15:20 北東 5 10km以上 9 57 1000
16 14:50 北東 5 10km以上 9 57 1000
16 14:20 北東 5 10km以上 10 50 1000
16 13:50 北北東 5 10km以上 10 50 1000
16 13:20 北北東 5 10km以上 10 43 1000
16 12:50 北東 5 10km以上 10 43 999
16 12:20 北北東 4 10km以上 10 46 999
16 11:50 北東 4 10km以上 9 46 999
16 11:20 北北東 4 10km以上 9 57 999
16 10:50 不定 2 10km以上 8 71 999
16 10:20 2 10km以上 8 71 999
16 09:50 東北東 3 10km以上 7 70 999
16 09:20 不定 1 10km以上 6 81 999
16 08:50 不定 1 10km以上 5 87 998
16 08:20 静穏 0 10km以上 5 81 998
16 07:50 不定 1 10km以上 4 87 998
16 07:20 不定 1 10km以上 3 87 998
16 06:50 東北東 2 10km以上 4 81 998
16 06:20 東北東 3 10km以上 4 87 998
16 05:50 東北東 3 10km以上 3 87 998
16 05:20 東北東 2 10km以上 2 93 998
16 04:50 不定 1 10km以上 2 93 998
16 03:20 不定 2 10km以上 3 87 997
16 02:50 不定 1 10km以上 3 93 997
16 02:20 東南東 1 10km以上 3 93 997
16 01:20 北東 1 10km以上 4 87 997
16 00:50 不定 2 10km以上 4 87 996
16 00:20 2 10km以上 4 93 996
15 23:50 不定 1 10km以上 4 87 996
15 23:20 不定 1 10km以上 5 87 996
15 22:50 静穏 0 10km以上 5 87 996
15 22:20 東南東 2 10km以上 5 81 995
15 21:50 2 10km以上 5 87 995
15 20:50 不定 2 10km以上 6 81 995
15 20:20 不定 1 10km以上 6 81 995
15 19:50 不定 1 10km以上 7 76 994
15 19:20 不定 2 10km以上 9 66 994
15 18:50 不定 1 10km以上 9 71 994
15 17:50 南西 3 10km以上 10 66 994
15 17:20 南南西 4 10km以上 10 62 994
15 16:50 南南西 5 10km以上 11 58 993
15 15:50 南南西 5 10km以上 11 58 993
15 15:20 南南西 6 10km以上 10 62 993
15 14:50 南南西 6 10km以上 10 62 993
15 14:20 南南西 5 10km以上 11 58 993
15 13:50 南南西 6 10km以上 10 62 993
15 13:20 南南西 6 10km以上 11 54 993
15 12:50 南南東 3 10km以上 12 47 993
15 12:20 南南東 5 10km以上 11 47 993
15 11:50 南東 4 10km以上 11 47 993
15 11:20 不定 2 10km以上 11 54 993
15 10:50 静穏 0 10km以上 10 54 993
15 10:20 不定 2 10km以上 9 62 993
15 09:50 3 10km以上 9 62 993
15 09:20 北東 2 10km以上 7 76 993
15 08:50 北東 3 10km以上 5 87 993
15 08:20 北東 2 10km以上 4 87 994
15 07:50 東北東 2 10km以上 3 87 994
15 07:20 不定 1 10km以上 2 93 994
15 06:50 不定 2 10km以上 2 93 995
15 06:20 不定 2 10km以上 2 93 995
15 05:50 不定 1 10km以上 3 87 996
15 05:20 不定 2 10km以上 3 87 996
15 04:50 北東 3 10km以上 3 87 997
15 04:20 不定 2 10km以上 2 93 997
15 03:50 不定 1 10km以上 2 93 998
15 03:20 不定 1 10km以上 2 93 999
15 02:50 北東 2 10km以上 3 93 999
15 02:20 不定 2 10km以上 3 87 1000
15 01:50 不定 1 10km以上 3 93 1001
15 01:20 東北東 2 10km以上 3 93 1001
15 00:50 東北東 2 10km以上 3 93 1002
15 00:20 不定 2 10km以上 3 93 1002
14 23:50 北東 2 10km以上 3 93 1002
14 23:20 北東 3 10km以上 3 93 1003
14 22:50 不定 1 10km以上 4 87 1003
14 22:20 不定 1 10km以上 5 87 1004
14 21:50 不定 2 10km以上 5 87 1004
14 21:20 南南西 4 10km以上 6 81 1005
14 20:50 3 10km以上 5 81 1005
14 20:20 5 10km以上 6 76 1005
14 19:50 4 10km以上 6 76 1005
14 19:20 5 10km以上 6 81 1006
14 18:50 5 10km以上 7 76 1006
14 17:50 南西 4 10km以上 8 71 1007
14 17:20 7 10km以上 7 76 1007
ENTC 161450Z 04010KT 9999 FEW047 SCT074 BKN098 09/01 Q1000 NOSIG RMK WIND 2600FT 09007KT
ENTC 161420Z 05009KT 9999 SCT047 BKN110 09/02 Q1000 NOSIG RMK WIND 2600FT 09007KT
ENTC 161350Z 05010KT 9999 FEW066 BKN098 10/01 Q1000 NOSIG RMK WIND 2600FT 07007KT
ENTC 161320Z 05009KT 9999 FEW066 BKN098 09/01 Q1000 NOSIG RMK WIND 2600FT 07007KT
ENTC 161250Z 05010KT 9999 BKN076 09/01 Q1000 NOSIG RMK WIND 2600FT 07005KT
ENTC 161220Z 04009KT CAVOK 10/00 Q1000 NOSIG RMK WIND 2600FT 08004KT
ENTC 161150Z 02010KT CAVOK 10/M00 Q1000 NOSIG RMK WIND 2600FT 07006KT
ENTC 161120Z 03009KT CAVOK 10/M02 Q1000 NOSIG RMK WIND 2600FT 06006KT
ENTC 161050Z 04010KT CAVOK 10/M02 Q0999 NOSIG RMK WIND 2600FT 07005KT
ENTC 161020Z 03008KT CAVOK 10/M01 Q0999 NOSIG RMK WIND 2600FT 09007KT
ENTC 160950Z 05008KT 020V090 CAVOK 09/M02 Q0999 NOSIG RMK WIND 2600FT 10009KT
ENTC 160920Z 03007KT CAVOK 09/01 Q0999 NOSIG RMK WIND 2600FT 09010KT
ENTC 160850Z VRB03KT CAVOK 08/03 Q0999 NOSIG RMK WIND 2600FT 09009KT
ENTC 160820Z 01004KT CAVOK 08/03 Q0999 NOSIG RMK WIND 2600FT 10010KT
ENTC 160750Z 07005KT CAVOK 07/02 Q0999 NOSIG RMK WIND 2600FT 09009KT
ENTC 160720Z VRB01KT CAVOK 06/03 Q0999 NOSIG RMK WIND 2600FT 09008KT
ENTC 160650Z VRB01KT CAVOK 05/03 Q0998 NOSIG RMK WIND 2600FT 10009KT
ENTC 160620Z 00000KT CAVOK 05/02 Q0998 NOSIG RMK WIND 2600FT 12007KT
ENTC 160550Z VRB01KT CAVOK 04/02 Q0998 NOSIG RMK WIND 2600FT 12006KT
ENTC 160520Z VRB02KT CAVOK 03/01 Q0998 NOSIG RMK WIND 2600FT 11008KT
ENTC 160450Z 07003KT 020V100 CAVOK 04/01 Q0998 RMK WIND 2600FT 11009KT
ENTC 160420Z 06005KT CAVOK 04/02 Q0998 RMK WIND 2600FT 09007KT
ENTC 160350Z 07005KT CAVOK 03/01 Q0998 RMK WIND 2600FT 10004KT
ENTC 160320Z 07003KT CAVOK 02/01 Q0998 RMK WIND 2600FT 16004KT
ENTC 160250Z VRB01KT CAVOK 02/01 Q0998 RMK WIND 2600FT 15003KT
ENTC 160120Z VRB03KT CAVOK 03/01 Q0997 RMK WIND 2600FT 16007KT
ENTC 160050Z VRB01KT CAVOK 03/02 Q0997 RMK WIND 2600FT 18009KT
ENTC 160020Z 11002KT CAVOK 03/02 Q0997 RMK WIND 2600FT 18011KT
ENTC 152320Z 04002KT CAVOK 04/02 Q0997 RMK WIND 2600FT 17015KT
ENTC 152250Z VRB03KT CAVOK 04/02 Q0996 RMK WIND 2600FT 18019KT
ENTC 152220Z 08003KT 050V150 CAVOK 04/03 Q0996 RMK WIND 2600FT 17017KT
ENTC 152150Z VRB02KT CAVOK 04/02 Q0996 RMK WIND 2600FT 17018KT
ENTC 152120Z VRB01KT CAVOK 05/03 Q0996 RMK WIND 2600FT 17020KT
ENTC 152050Z 00000KT CAVOK 05/03 Q0996 NOSIG RMK WIND 2600FT 16023KT
ENTC 152020Z 12003KT CAVOK 05/02 Q0995 NOSIG RMK WIND 2600FT 17020KT
ENTC 151950Z 08003KT 040V130 9999 FEW088 05/03 Q0995 NOSIG RMK WIND 2600FT 16022KT
ENTC 151850Z VRB03KT 9999 FEW040 SCT090 06/03 Q0995 NOSIG RMK WIND 2600FT 16021KT
ENTC 151820Z VRB01KT 9999 FEW040 SCT090 06/03 Q0995 NOSIG RMK WIND 2600FT 15020KT
ENTC 151750Z VRB02KT 9999 FEW057 SCT100 07/03 Q0994 NOSIG RMK WIND 2600FT 14016KT
ENTC 151720Z VRB03KT 9999 FEW050 09/03 Q0994 NOSIG RMK WIND 2600FT 15012KT
ENTC 151650Z VRB02KT 9999 FEW040 09/04 Q0994 NOSIG RMK WIND 2600FT 17014KT
ENTC 151550Z 23005KT CAVOK 10/04 Q0994 NOSIG RMK WIND 2600FT 16017KT
ENTC 151520Z 21007KT 9999 FEW040 10/03 Q0994 NOSIG RMK WIND 2600FT 16018KT
ENTC 151450Z 21010KT 9999 FEW040 11/03 Q0993 NOSIG RMK WIND 2600FT 17021KT
ENTC 151350Z 20009KT 9999 FEW030 11/03 Q0993 RMK WIND 2600FT 16021KT
ENTC 151320Z 20011KT 9999 FEW030 10/03 Q0993 NOSIG RMK WIND 2600FT 16022KT
ENTC 151250Z 20011KT 9999 FEW030 SCT110 10/03 Q0993 NOSIG RMK WIND 2600FT 16025KT
ENTC 151220Z 20009KT 9999 FEW030 SCT100 11/03 Q0993 NOSIG RMK WIND 2600FT 17029KT
ENTC 151150Z 20011KT CAVOK 10/03 Q0993 TEMPO VRB05KT RMK WIND 2600FT 17029KT
ENTC 151120Z 20012KT CAVOK 11/02 Q0993 TEMPO VRB05KT RMK WIND 2600FT 17030KT
ENTC 151050Z 16006G19KT 130V220 CAVOK 12/01 Q0993 NOSIG RMK WIND 2600FT 16026KT
ENTC 151020Z 15009KT 110V190 CAVOK 11/M00 Q0993 NOSIG RMK WIND 2600FT 15029KT
ENTC 150950Z 14008KT 100V200 CAVOK 11/M00 Q0993 NOSIG RMK WIND 2600FT 15026KT
ENTC 150920Z VRB03KT CAVOK 11/02 Q0993 NOSIG RMK WIND 2600FT 15022KT
ENTC 150850Z 00000KT CAVOK 10/01 Q0993 NOSIG RMK WIND 2600FT 15025KT
ENTC 150820Z VRB04KT CAVOK 09/02 Q0993 NOSIG RMK WIND 2600FT 15027KT
ENTC 150750Z VRB05KT CAVOK 09/02 Q0993 NOSIG RMK WIND 2600FT 15027KT
ENTC 150720Z 04004KT 010V080 CAVOK 07/03 Q0993 NOSIG RMK WIND 2600FT 14024KT
ENTC 150650Z 04005KT 360V080 CAVOK 05/03 Q0993 NOSIG RMK WIND 2600FT 14023KT
ENTC 150620Z 05004KT CAVOK 04/02 Q0994 RMK WIND 2600FT 14020KT
ENTC 150550Z 07003KT 020V130 CAVOK 03/01 Q0994 RMK WIND 2600FT 14024KT
ENTC 150520Z VRB02KT CAVOK 02/01 Q0994 RMK WIND 2600FT 14022KT
ENTC 150450Z VRB03KT CAVOK 02/01 Q0995 RMK WIND 2600FT 14022KT
ENTC 150420Z VRB03KT CAVOK 02/01 Q0995 RMK WIND 2600FT 14023KT
ENTC 150350Z VRB02KT CAVOK 03/01 Q0996 RMK WIND 2600FT 13019KT
ENTC 150320Z VRB04KT CAVOK 03/01 Q0996 RMK WIND 2600FT 12019KT
ENTC 150250Z 05006KT CAVOK 03/01 Q0997 RMK WIND 2600FT 13017KT
ENTC 150220Z VRB03KT CAVOK 02/01 Q0997 RMK WIND 2600FT 13017KT
ENTC 150150Z VRB02KT CAVOK 02/01 Q0998 RMK WIND 2600FT 13016KT
ENTC 150120Z VRB01KT CAVOK 02/01 Q0999 RMK WIND 2600FT 14015KT
ENTC 150050Z 05003KT 010V110 CAVOK 03/02 Q0999 RMK WIND 2600FT 13013KT
ENTC 150020Z VRB03KT CAVOK 03/01 Q1000 RMK WIND 2600FT 15016KT
ENTC 142350Z VRB02KT CAVOK 03/02 Q1001 RMK WIND 2600FT 15017KT
ENTC 142320Z 07004KT 030V090 CAVOK 03/02 Q1001 RMK WIND 2600FT 15017KT
ENTC 142250Z 06003KT CAVOK 03/02 Q1002 RMK WIND 2600FT 15015KT
ENTC 142220Z VRB03KT CAVOK 03/02 Q1002 RMK WIND 2600FT 16018KT
ENTC 142150Z 04003KT CAVOK 03/02 Q1002 RMK WIND 2600FT 17016KT
ENTC 142120Z 04005KT CAVOK 03/02 Q1003 RMK WIND 2600FT 17017KT
ENTC 142050Z VRB02KT 9999 SCT046 04/02 Q1003 RMK WIND 2600FT 18017KT
ENTC 142020Z VRB01KT 9999 FEW043 05/03 Q1004 RMK WIND 2600FT 18015KT
ENTC 141950Z VRB03KT 9999 FEW042 05/03 Q1004 RMK WIND 2600FT 18013KT
ENTC 141920Z 20007KT 9999 FEW042 06/03 Q1005 RMK WIND 2600FT 19015KT
ENTC 141850Z 18006KT 9999 FEW046 05/02 Q1005 RMK WIND 2600FT 18015KT
ENTC 141820Z 19009KT 9999 FEW041 06/02 Q1005 RMK WIND 2600FT 18013KT
ENTC 141750Z 19008KT 9999 FEW040 06/02 Q1005 NOSIG RMK WIND 2600FT 18013KT
ENTC 141720Z 18009KT 9999 SCT042 06/03 Q1006 NOSIG RMK WIND 2600FT 18014KT
ENTC 141650Z 18009KT 9999 SCT042 07/03 Q1006 NOSIG RMK WIND 2600FT 18014KT
ENTC 141550Z 22008KT 180V280 9999 SCT026 BKN044 08/03 Q1007 NOSIG RMK WIND 2600FT 21011KT
ENTC 141520Z 19013KT 9999 SCT026 BKN044 07/03 Q1007 NOSIG RMK WIND 2600FT 24015KT